NCAR-RAP Real-Time Weather Data

Output produced by METARs form (23 February 2020  02:26 UTC)
found at http://weather.rap.ucar.edu/surface/
 
KABQ 230152Z 16003KT 8SM BKN003 OVC010 07/06 A3007 RMK AO2 RAB03E41 SLP168 MTNS OBSC NE-SE P0000 T00670056
KABQ 230052Z 23006KT 4SM BR OVC002 07/06 A3008 RMK AO2 SLP171 MTNS OBSC NE-SE T00670061
KABQ 222352Z 26004KT 3SM BR FEW005 BKN060 OVC075 07/07 A3008 RMK AO2 RAB03E04 SLP168 MTNS OBSC NE-SE P0001 60007 T00720067 10078 20067 56018 $
KABQ 222252Z 00000KT 10SM FEW005 BKN060 OVC075 08/06 A3009 RMK AO2 RAE25DZB25E33 SLP169 MTN TOPS OBSC NE MTNS OBSC SE P0001 T00780061 $
KABQ 222237Z 12004KT 7SM FEW005 SCT060 OVC075 07/06 A3010 RMK AO2 RAE25DZB25E33 MTN TOPS OBSC NE MTNS OBSC SE P0001 T00720061 $
KABQ 222152Z 00000KT 2SM -RA BR FEW007 SCT034 OVC055 07/06 A3012 RMK AO2 SFC VIS 3 SLP184 MTNS OBSC NE-SE P0003 T00720056 $
KABQ 222052Z 20003KT 2SM -RA BR SCT009 BKN044 OVC055 07/05 A3014 RMK AO2 SFC VIS 4 SLP192 MTNS OBSC NE-SE P0002 60002 T00670050 58027 $
KABQ 222016Z 20003KT 2SM -RA BR FEW009 BKN045 OVC050 07/05 A3015 RMK AO2 SFC VIS 6 MTNS TOPS OBSC NE MTNS OBSC SE P0001 T00670050 $
KABQ 221952Z 17005KT 9SM -RA FEW020 BKN045 OVC060 07/04 A3017 RMK AO2 RAE1858B32 SLP202 MTNS TOPS OBSC NE MTNS OBSC SE P0000 T00670044 $
KABQ 221852Z 16007KT 10SM -RA FEW025 BKN042 OVC050 07/03 A3020 RMK AO2 RAB05 SLP213 MTNS TOPS OBSC NE MTNS OBSC SE P0000 T00670033 $
KABQ 221752Z 17010KT 10SM FEW027 SCT050 BKN070 OVC210 07/02 A3023 RMK AO2 RAB15E22 SLP222 MTNS TOPS OBSC NE MTNS OBSC SE P0000 60000 T00720017 10072 20039 58002 $
KABQ 221652Z 21007KT 10SM FEW050 FEW075 BKN095 OVC210 07/01 A3025 RMK AO2 SLP230 T00670011
KABQ 221552Z 18007KT 10SM FEW050 FEW075 OVC095 06/01 A3023 RMK AO2 SLP224 T00610006
KABQ 221452Z 14004KT 10SM FEW075 OVC090 04/00 A3024 RMK AO2 SLP232 T00390000 53003
KABQ 221352Z 00000KT 10SM BKN100 OVC120 04/M01 A3023 RMK AO2 SLP224 T00391006
KABQ 221252Z 00000KT 10SM FEW080 OVC140 04/M01 A3021 RMK AO2 SLP213 T00441006
KABQ 221152Z 00000KT 10SM FEW080 OVC140 04/M01 A3023 RMK AO2 SLP220 T00441006 10056 20033 56010
KABQ 221052Z 00000KT 10SM FEW080 OVC160 05/M01 A3024 RMK AO2 SLP224 T00501006
KABQ 220952Z 08003KT 10SM FEW140 OVC170 04/M01 A3024 RMK AO2 SLP228 T00391006
KABQ 220852Z 13004KT 10SM OVC170 04/M01 A3026 RMK AO2 SLP238 T00391006 58013
KABQ 220752Z 15004KT 10SM OVC170 05/M01 A3028 RMK AO2 SLP243 T00501006
KABQ 220652Z 11003KT 10SM OVC180 04/M01 A3030 RMK AO2 SLP252 T00391011 400781011
KABQ 220552Z COR 13004KT 10SM OVC180 04/M01 A3031 RMK AO2 SLP259 T00441011 10078 20039 50002
KABQ 220452Z 13003KT 10SM BKN180 OVC230 04/M02 A3031 RMK AO2 SLP264 T00441017
KABQ 220352Z 14005KT 10SM BKN180 OVC250 04/M02 A3032 RMK AO2 SLP268 T00441022
KABQ 220252Z 12006KT 10SM BKN160 OVC250 05/M02 A3030 RMK AO2 SLP262 T00501022 53000
KABQ 220152Z 00000KT 10SM BKN180 OVC250 07/M02 A3030 RMK AO2 SLP260 T00721022
KABQ 220052Z 24004KT 10SM FEW100 BKN180 OVC250 07/M02 A3030 RMK AO2 SLP258 T00721022
KABQ 212352Z 19005KT 10SM FEW100 BKN180 OVC250 07/M02 A3030 RMK AO2 SLP259 T00721022 10078 20033 56014
KABQ 212252Z 16004KT 10SM FEW100 BKN180 OVC250 07/M02 A3031 RMK AO2 SLP263 T00721022
KABQ 212152Z 21007KT 10SM FEW100 OVC220 07/M03 A3033 RMK AO2 SLP269 T00721028
KABQ 212052Z VRB03KT 10SM FEW100 BKN210 OVC250 06/M03 A3035 RMK AO2 SLP279 T00611028 58034
KABQ 211952Z 00000KT 10SM FEW120 OVC140 06/M03 A3039 RMK AO2 SLP292 T00611033
KABQ 211852Z 19006KT 10SM FEW120 OVC170 06/M03 A3044 RMK AO2 SLP311 T00561033
KABQ 211752Z 00000KT 10SM FEW025 BKN110 OVC250 03/M04 A3047 RMK AO2 SLP325 T00331039 10039 21011 58001
KABQ 211739Z 00000KT 10SM FEW025 BKN120 OVC250 04/M04 A3047 RMK AO2 T00391039
KABQ 211652Z 00000KT 10SM BKN025 OVC230 02/M04 A3048 RMK AO2 SLP331 MTN TOPS OBSC NE AND SE T00221044
KABQ 211552Z 00000KT 10SM FEW035 OVC120 01/M04 A3048 RMK AO2 SLP333 MTN TOPS OBSC NE AND SE T00111044
KABQ 211452Z 00000KT 10SM FEW035 BKN130 OVC170 00/M05 A3047 RMK AO2 SLP332 MTNS OBSC NE AND SE T00001050 53000
KABQ 211352Z 34006KT 10SM FEW035 BKN140 OVC170 M01/M05 A3046 RMK AO2 SLP328 MTNS OBSC NE T10111050
KABQ 211252Z 00000KT 10SM FEW020 BKN140 OVC210 M01/M05 A3046 RMK AO2 SLP326 MTNS OBSC NE-SE T10111050
KABQ 211152Z 30003KT 10SM BKN030 BKN170 OVC230 M01/M06 A3047 RMK AO2 SLP324 MTNS OBSC NE-SE T10111056 10000 21011 55004
KABQ 211052Z 34004KT 10SM FEW035 SCT170 OVC230 M01/M06 A3045 RMK AO2 SLP315 MTNS OBSC SE T10111056
KABQ 210952Z 29003KT 10SM FEW035 BKN170 BKN240 M01/M06 A3046 RMK AO2 SLP319 MTNS OBSC SE T10111056
KABQ 210852Z 07006KT 10SM FEW035 SCT170 BKN240 M01/M06 A3048 RMK AO2 SLP326 T10061056 56002
KABQ 210752Z 09009KT 10SM FEW040 BKN170 M01/M06 A3048 RMK AO2 SLP327 T10061056
KABQ 210652Z 07019KT 10SM BKN200 00/M06 A3047 RMK AO2 SLP320 T00001061 400780000
KABQ 210552Z 08019KT 10SM BKN200 00/M06 A3049 RMK AO2 SLP331 T00001061 10050 20000 51010
KABQ 210452Z 08021KT 10SM BKN200 01/M06 A3047 RMK AO2 SLP326 T00061061
KABQ 210352Z 08021KT 10SM SCT250 01/M06 A3047 RMK AO2 PK WND 08030/0339 SLP327 T00061061
KABQ 210252Z 09020G25KT 10SM SCT250 01/M06 A3045 RMK AO2 PK WND 09029/0213 SLP321 T00061056 53018